createdAt,value
2019-05-30T00:05:44.402Z,101022.72
2019-05-30T00:15:47.985Z,101016.44
2019-05-30T00:25:51.704Z,101014.66
2019-05-30T00:35:59.955Z,101020.73
2019-05-30T00:46:04.221Z,101024.00
2019-05-30T00:56:08.193Z,101027.23
2019-05-30T01:06:11.762Z,101028.64
2019-05-30T01:16:15.382Z,101023.84
2019-05-30T01:26:18.947Z,101008.36
2019-05-30T01:36:22.522Z,101006.61
2019-05-30T01:46:26.069Z,101014.14
2019-05-30T01:56:29.606Z,101026.58
2019-05-30T02:06:33.187Z,101031.47
2019-05-30T02:16:36.763Z,101034.59
2019-05-30T02:26:40.303Z,101033.27
2019-05-30T02:36:43.898Z,101039.92
2019-05-30T02:46:47.491Z,101051.00
2019-05-30T02:56:51.410Z,101059.41
2019-05-30T03:06:54.990Z,101060.31
2019-05-30T03:16:58.560Z,101065.59
2019-05-30T03:27:02.597Z,101078.44
2019-05-30T03:37:13.957Z,101079.79
2019-05-30T03:47:13.797Z,101078.83
2019-05-30T03:57:26.067Z,101081.71
2019-05-30T04:07:29.639Z,101083.33
2019-05-30T04:17:33.384Z,101095.77
2019-05-30T04:27:38.360Z,101112.59
2019-05-30T04:37:41.926Z,101121.19
2019-05-30T04:47:45.502Z,101129.18
2019-05-30T04:57:49.074Z,101151.48
2019-05-30T05:07:52.623Z,101151.72
2019-05-30T05:17:56.193Z,101155.49
2019-05-30T05:27:59.775Z,101171.55
2019-05-30T05:38:03.319Z,101171.12
2019-05-30T05:48:07.477Z,101178.29
2019-05-30T05:58:11.051Z,101177.33
2019-05-30T06:08:14.619Z,101176.39
2019-05-30T06:18:18.194Z,101191.09
2019-05-30T06:28:22.013Z,101190.61
2019-05-30T06:38:25.665Z,101203.06
2019-05-30T06:48:29.223Z,101202.48
2019-05-30T06:58:46.949Z,101196.66
2019-05-30T07:08:38.097Z,101200.18
2019-05-30T07:18:41.761Z,101212.16
2019-05-30T07:28:45.329Z,101207.58
2019-05-30T07:38:48.903Z,101209.28
2019-05-30T07:48:52.450Z,101207.70
2019-05-30T07:58:56.017Z,101206.24
2019-05-30T08:08:59.602Z,101210.58
2019-05-30T08:19:03.178Z,101228.03
2019-05-30T08:29:07.327Z,101215.51
2019-05-30T08:39:10.904Z,101208.75
2019-05-30T08:49:14.531Z,101218.67
2019-05-30T08:59:18.093Z,101206.70
2019-05-30T09:09:21.622Z,101210.22
2019-05-30T09:19:25.239Z,101203.17
2019-05-30T09:29:28.827Z,101182.31
2019-05-30T09:39:32.395Z,101170.41
2019-05-30T09:49:35.963Z,101181.04
2019-05-30T09:59:39.560Z,101176.55
2019-05-30T10:09:44.533Z,101173.37
2019-05-30T10:19:48.819Z,101169.09
2019-05-30T10:29:53.366Z,101172.30
2019-05-30T10:39:57.782Z,101154.69
2019-05-30T10:50:04.981Z,101155.14
2019-05-30T11:00:11.476Z,101155.61
2019-05-30T11:10:33.987Z,101135.98
2019-05-30T11:20:37.532Z,101134.23
2019-05-30T11:30:41.138Z,101123.55
2019-05-30T11:40:45.607Z,101117.80
2019-05-30T11:50:50.405Z,101115.18
2019-05-30T12:00:54.763Z,101108.53
2019-05-30T12:10:59.381Z,101103.56
2019-05-30T12:21:03.053Z,101085.84
2019-05-30T12:31:06.934Z,101078.30
2019-05-30T12:41:10.563Z,101069.41
2019-05-30T12:51:14.121Z,101056.46
2019-05-30T13:01:17.689Z,101051.57
2019-05-30T13:11:21.276Z,101051.58
2019-05-30T13:21:24.827Z,101040.91
2019-05-30T13:31:28.371Z,101033.75
2019-05-30T13:41:31.942Z,101033.34
2019-05-30T13:51:35.521Z,101029.30
2019-05-30T14:01:39.098Z,101025.76
2019-05-30T14:11:42.670Z,101020.84
2019-05-30T14:21:46.247Z,101018.66
2019-05-30T14:31:49.831Z,101013.33
2019-05-30T14:41:53.421Z,101007.95
2019-05-30T14:51:57.064Z,101014.62
2019-05-30T15:02:00.643Z,101014.66
2019-05-30T15:12:04.892Z,101010.20
2019-05-30T15:22:09.526Z,101003.06
2019-05-30T15:32:14.495Z,101005.31
2019-05-30T15:42:18.204Z,101003.07
2019-05-30T15:52:21.767Z,101007.05
2019-05-30T16:02:25.335Z,100992.33
2019-05-30T16:12:28.953Z,101000.34
2019-05-30T16:22:32.580Z,100995.00
2019-05-30T16:32:36.136Z,100987.45
2019-05-30T16:42:39.735Z,100982.63
2019-05-30T16:52:43.535Z,100979.92
2019-05-30T17:02:47.116Z,100983.47
2019-05-30T17:12:50.682Z,100980.83
2019-05-30T17:22:54.227Z,100979.04
2019-05-30T17:32:57.793Z,100980.91
2019-05-30T17:43:01.360Z,100984.06
2019-05-30T17:53:05.009Z,100976.92
2019-05-30T18:03:08.927Z,100983.20
2019-05-30T18:13:12.504Z,100987.96
2019-05-30T18:23:16.527Z,100989.92
2019-05-30T18:33:20.075Z,100993.75
2019-05-30T18:43:24.677Z,100996.09
2019-05-30T18:53:28.366Z,101003.22
2019-05-30T19:03:33.358Z,101001.48
2019-05-30T19:13:37.375Z,101014.38
2019-05-30T19:23:41.100Z,101025.46
2019-05-30T19:33:44.706Z,101035.90
2019-05-30T19:43:48.343Z,101029.36
2019-05-30T19:53:51.944Z,101045.23
2019-05-30T20:03:55.518Z,101038.02
2019-05-30T20:13:59.171Z,101045.27
2019-05-30T20:24:02.733Z,101051.91
2019-05-30T20:34:06.310Z,101048.52
2019-05-30T20:44:09.852Z,101049.44
2019-05-30T20:54:13.403Z,101054.89
2019-05-30T21:04:16.976Z,101062.08
2019-05-30T21:14:21.240Z,101050.00
2019-05-30T21:24:25.344Z,101052.11
2019-05-30T21:34:29.787Z,101054.06
2019-05-30T21:44:34.056Z,101054.06
2019-05-30T21:54:38.017Z,101054.10
2019-05-30T22:04:42.491Z,101063.42
2019-05-30T22:14:46.350Z,101057.63
2019-05-30T22:24:50.363Z,101059.40
2019-05-30T22:34:54.321Z,101059.80
2019-05-30T22:44:57.893Z,101058.44
2019-05-30T22:55:01.509Z,101059.30
2019-05-30T23:05:06.555Z,101053.98
2019-05-30T23:15:10.637Z,101058.79
2019-05-30T23:25:15.815Z,101057.45
2019-05-30T23:35:19.453Z,101058.72
2019-05-30T23:45:23.077Z,101072.38
2019-05-30T23:55:26.667Z,101065.69
